Terminal Aerodrome Forecast
Issued by NWS

Home | Current Version | Previous Version | Text Only | Print | Product List | Glossary On
Versions: 1 2 3 4 5 6 7 8 9 10 11 12 13 14 15 16 17 18
000
FTUS42 KTBW 291740
TAFRSW
TAF
KRSW 291740Z 2918/3018 10009G15KT 6SM FU VCSH SCT045 SCT250
     FM292000 09010KT P6SM VCTS SCT030CB BKN050
     FM300100 07007KT 6SM FU SCT050 SCT250
     FM300500 06004KT 6SM FU HZ SCT250
     FM301400 10007KT P6SM FEW250=

USA.gov is the U.S. government's official web portal to all federal, state and local government web resources and services.